createdAt,value
2023-02-23T00:01:32.432Z,54.53
2023-02-23T00:04:02.764Z,50.67
2023-02-23T00:06:36.779Z,51.22
2023-02-23T00:09:14.025Z,51.65
2023-02-23T00:11:44.350Z,54.28
2023-02-23T00:14:14.599Z,55.42
2023-02-23T00:16:45.640Z,56.92
2023-02-23T00:19:17.733Z,54.33
2023-02-23T00:21:51.131Z,53.78
2023-02-23T00:24:22.252Z,49.78
2023-02-23T00:26:52.551Z,53.03
2023-02-23T00:29:23.736Z,45.80
2023-02-23T00:34:24.693Z,48.70
2023-02-23T00:36:57.878Z,47.05
2023-02-23T00:39:29.510Z,46.63
2023-02-23T00:42:03.228Z,49.70
2023-02-23T00:44:34.213Z,46.67
2023-02-23T00:47:04.674Z,39.67
2023-02-23T00:49:35.188Z,41.78
2023-02-23T00:52:08.203Z,41.50
2023-02-23T00:54:38.611Z,42.00
2023-02-23T00:57:08.801Z,41.13
2023-02-23T00:59:39.226Z,39.92
2023-02-23T01:02:09.448Z,43.92
2023-02-23T01:04:39.806Z,41.58
2023-02-23T01:07:13.191Z,44.53
2023-02-23T01:09:43.966Z,40.70
2023-02-23T01:12:14.263Z,39.92
2023-02-23T01:14:44.527Z,41.13
2023-02-23T01:17:14.840Z,43.25
2023-02-23T01:19:45.098Z,39.97
2023-02-23T01:22:17.968Z,37.05
2023-02-23T01:24:48.209Z,35.55
2023-02-23T01:27:18.393Z,35.88
2023-02-23T01:29:48.847Z,35.67
2023-02-23T01:32:19.110Z,38.28
2023-02-23T01:34:49.743Z,35.60
2023-02-23T01:37:22.573Z,35.58
2023-02-23T01:39:52.925Z,39.05
2023-02-23T01:42:23.197Z,38.50
2023-02-23T01:45:09.867Z,34.70
2023-02-23T01:47:40.090Z,39.10
2023-02-23T01:50:11.989Z,39.92
2023-02-23T01:52:44.867Z,37.33
2023-02-23T01:55:15.823Z,40.13
2023-02-23T01:57:46.155Z,37.42
2023-02-23T02:00:20.203Z,36.60
2023-02-23T02:02:50.733Z,37.53
2023-02-23T02:05:21.285Z,32.63
2023-02-23T02:07:59.198Z,35.20
2023-02-23T02:10:45.926Z,34.17
2023-02-23T02:13:19.064Z,37.22
2023-02-23T02:15:59.107Z,32.80
2023-02-23T02:18:38.270Z,30.98
2023-02-23T02:21:19.054Z,31.33
2023-02-23T02:24:10.419Z,32.42
2023-02-23T02:26:49.015Z,37.63
2023-02-23T02:29:34.719Z,38.78
2023-02-23T02:32:17.262Z,35.75
2023-02-23T02:35:02.492Z,33.15
2023-02-23T02:37:47.840Z,37.90
2023-02-23T02:40:21.505Z,33.58
2023-02-23T02:43:09.118Z,38.35
2023-02-23T02:45:43.662Z,37.58
2023-02-23T02:48:19.403Z,37.90
2023-02-23T02:50:51.300Z,39.55
2023-02-23T02:53:26.147Z,39.45
2023-02-23T02:55:59.852Z,45.60
2023-02-23T02:58:30.120Z,43.05
2023-02-23T03:01:21.306Z,42.95
2023-02-23T03:04:04.506Z,45.67
2023-02-23T03:06:48.514Z,45.92
2023-02-23T03:09:39.680Z,47.00
2023-02-23T03:12:23.891Z,44.97
2023-02-23T03:15:11.744Z,48.97
2023-02-23T03:17:58.938Z,48.00
2023-02-23T03:20:42.993Z,49.35
2023-02-23T03:23:30.319Z,49.75
2023-02-23T03:26:18.537Z,39.17
2023-02-23T03:29:05.597Z,44.58
2023-02-23T03:31:53.276Z,45.10
2023-02-23T03:34:38.139Z,48.35
2023-02-23T03:37:24.345Z,46.08
2023-02-23T03:40:09.525Z,48.70
2023-02-23T03:42:57.212Z,48.38
2023-02-23T03:45:41.381Z,45.92
2023-02-23T03:48:25.894Z,46.92
2023-02-23T03:51:10.194Z,42.25
2023-02-23T03:56:37.209Z,41.35
2023-02-23T03:59:23.176Z,43.65
2023-02-23T04:02:07.212Z,46.67
2023-02-23T04:04:50.744Z,46.65
2023-02-23T04:07:34.710Z,42.00
2023-02-23T04:10:17.990Z,43.85
2023-02-23T04:13:02.906Z,46.80
2023-02-23T04:15:34.876Z,41.95
2023-02-23T04:18:07.104Z,46.17
2023-02-23T04:20:37.681Z,48.88
2023-02-23T04:23:07.892Z,43.53
2023-02-23T04:25:38.384Z,44.38
2023-02-23T04:28:08.842Z,46.63
2023-02-23T04:30:42.068Z,48.40
2023-02-23T04:33:12.582Z,40.15
2023-02-23T04:35:42.843Z,47.70
2023-02-23T04:38:13.073Z,44.08
2023-02-23T04:40:43.380Z,48.22
2023-02-23T04:43:14.385Z,43.72
2023-02-23T04:45:47.599Z,47.30
2023-02-23T04:48:17.823Z,46.35
2023-02-23T04:50:49.969Z,45.42
2023-02-23T04:53:20.225Z,47.80
2023-02-23T04:55:50.763Z,48.08
2023-02-23T04:58:20.987Z,45.40
2023-02-23T05:00:53.894Z,48.75
2023-02-23T05:03:24.127Z,45.33
2023-02-23T05:05:54.866Z,50.55
2023-02-23T05:08:25.068Z,45.50
2023-02-23T05:10:55.330Z,47.00
2023-02-23T05:13:25.602Z,44.95
2023-02-23T05:16:02.266Z,48.65
2023-02-23T05:18:32.593Z,50.00
2023-02-23T05:21:06.184Z,41.08
2023-02-23T05:23:37.840Z,50.63
2023-02-23T05:26:09.008Z,44.05
2023-02-23T05:28:39.962Z,47.30
2023-02-23T05:31:12.947Z,47.15
2023-02-23T05:33:43.420Z,47.33
2023-02-23T05:36:14.281Z,50.67
2023-02-23T05:38:44.534Z,50.20
2023-02-23T05:41:15.851Z,45.03
2023-02-23T05:43:46.119Z,47.30
2023-02-23T05:46:19.704Z,46.13
2023-02-23T05:48:50.154Z,45.83
2023-02-23T05:51:21.211Z,46.53
2023-02-23T05:56:23.189Z,42.83
2023-02-23T05:58:54.398Z,49.08
2023-02-23T06:01:27.342Z,46.25
2023-02-23T06:03:57.637Z,46.25
2023-02-23T06:06:28.605Z,46.83
2023-02-23T06:08:58.874Z,42.10
2023-02-23T06:11:29.120Z,50.45
2023-02-23T06:14:01.098Z,47.50
2023-02-23T06:16:34.088Z,45.95
2023-02-23T06:19:04.401Z,46.53
2023-02-23T06:21:34.892Z,45.80
2023-02-23T06:24:05.157Z,49.85
2023-02-23T06:26:35.710Z,45.22
2023-02-23T06:29:05.964Z,44.95
2023-02-23T06:31:38.991Z,45.70
2023-02-23T06:34:09.271Z,40.17
2023-02-23T06:36:39.686Z,42.15
2023-02-23T06:39:10.033Z,47.38
2023-02-23T06:41:40.632Z,46.22
2023-02-23T06:44:10.924Z,48.20
2023-02-23T06:46:43.792Z,47.83
2023-02-23T06:49:16.575Z,44.42
2023-02-23T06:51:47.727Z,49.45
2023-02-23T06:54:18.000Z,48.15
2023-02-23T06:56:48.210Z,42.90
2023-02-23T06:59:18.486Z,46.38
2023-02-23T07:01:51.411Z,44.40
2023-02-23T07:04:21.698Z,44.95
2023-02-23T07:06:52.061Z,46.20
2023-02-23T07:09:22.271Z,45.85
2023-02-23T07:11:53.072Z,46.58
2023-02-23T07:14:27.016Z,44.42
2023-02-23T07:17:00.174Z,41.20
2023-02-23T07:19:30.742Z,44.03
2023-02-23T07:22:01.242Z,44.28
2023-02-23T07:24:31.476Z,44.28
2023-02-23T07:27:01.764Z,48.13
2023-02-23T07:29:32.035Z,49.10
2023-02-23T07:32:05.078Z,48.25
2023-02-23T07:34:35.338Z,46.08
2023-02-23T07:37:05.629Z,46.47
2023-02-23T07:39:35.859Z,44.30
2023-02-23T07:42:06.172Z,45.03
2023-02-23T07:44:36.447Z,41.65
2023-02-23T07:47:09.478Z,44.70
2023-02-23T07:49:39.702Z,43.67
2023-02-23T07:52:10.050Z,46.97
2023-02-23T07:54:40.273Z,45.70
2023-02-23T07:57:11.498Z,51.70
2023-02-23T08:02:14.747Z,45.92
2023-02-23T08:04:45.052Z,45.40
2023-02-23T08:07:15.470Z,45.25
2023-02-23T08:09:45.971Z,44.30
2023-02-23T08:12:16.268Z,46.42
2023-02-23T08:14:46.612Z,46.42
2023-02-23T08:17:19.794Z,44.25
2023-02-23T08:19:50.148Z,47.75
2023-02-23T08:22:21.529Z,49.38
2023-02-23T08:24:51.831Z,45.88
2023-02-23T08:27:22.159Z,48.63
2023-02-23T08:29:52.676Z,41.50
2023-02-23T08:32:25.607Z,46.22
2023-02-23T08:34:55.891Z,43.63
2023-02-23T08:37:26.142Z,45.10
2023-02-23T08:39:56.689Z,46.65
2023-02-23T08:42:27.009Z,43.80
2023-02-23T08:44:57.532Z,50.28
2023-02-23T08:47:30.494Z,47.83
2023-02-23T08:50:00.722Z,45.83
2023-02-23T08:52:31.007Z,41.35
2023-02-23T08:55:01.242Z,45.20
2023-02-23T08:57:31.652Z,45.97
2023-02-23T09:00:02.307Z,48.20
2023-02-23T09:02:35.680Z,51.60
2023-02-23T09:05:05.946Z,46.67
2023-02-23T09:07:36.267Z,46.75
2023-02-23T09:10:06.632Z,45.83
2023-02-23T09:12:37.049Z,43.80
2023-02-23T09:15:07.819Z,45.55
2023-02-23T09:17:43.016Z,48.42
2023-02-23T09:20:16.015Z,45.10
2023-02-23T09:22:49.387Z,43.33
2023-02-23T09:25:22.810Z,48.78
2023-02-23T09:27:53.493Z,43.40
2023-02-23T09:30:24.309Z,44.50
2023-02-23T09:32:57.896Z,43.60
2023-02-23T09:35:28.401Z,49.38
2023-02-23T09:37:59.509Z,47.30
2023-02-23T09:40:30.838Z,41.92
2023-02-23T09:43:04.638Z,44.33
2023-02-23T09:45:39.407Z,44.72
2023-02-23T09:48:17.183Z,38.95
2023-02-23T09:53:24.875Z,42.17
2023-02-23T09:55:58.090Z,45.10
2023-02-23T09:58:29.305Z,41.05
2023-02-23T10:03:33.805Z,37.53
2023-02-23T10:06:05.785Z,41.47
2023-02-23T10:08:48.688Z,40.30
2023-02-23T10:11:27.069Z,42.67
2023-02-23T10:14:08.054Z,38.83
2023-02-23T10:16:43.304Z,40.70
2023-02-23T10:19:23.190Z,39.92
2023-02-23T10:21:57.755Z,40.33
2023-02-23T10:24:29.557Z,40.90
2023-02-23T10:27:01.911Z,40.20
2023-02-23T10:29:34.106Z,36.55
2023-02-23T10:32:06.138Z,40.35
2023-02-23T10:34:40.201Z,38.63
2023-02-23T10:37:10.867Z,37.90
2023-02-23T10:39:41.199Z,40.30
2023-02-23T10:42:16.370Z,37.72
2023-02-23T10:44:47.118Z,36.00
2023-02-23T10:47:18.820Z,38.75
2023-02-23T10:49:52.728Z,37.53
2023-02-23T10:52:25.141Z,36.25
2023-02-23T10:54:55.561Z,36.70
2023-02-23T10:57:27.884Z,35.42
2023-02-23T11:00:10.486Z,34.65
2023-02-23T11:02:41.860Z,40.05
2023-02-23T11:05:32.013Z,35.10
2023-02-23T11:08:29.418Z,35.58
2023-02-23T11:11:21.726Z,32.85
2023-02-23T11:13:53.010Z,34.70
2023-02-23T11:16:25.383Z,35.42
2023-02-23T11:18:57.450Z,36.33
2023-02-23T11:21:34.328Z,31.13
2023-02-23T11:24:08.191Z,32.33
2023-02-23T11:26:40.849Z,30.23
2023-02-23T11:29:17.582Z,32.03
2023-02-23T11:31:51.199Z,34.35
2023-02-23T11:34:24.992Z,32.38
2023-02-23T11:37:05.477Z,33.35
2023-02-23T11:39:38.694Z,31.23
2023-02-23T11:42:17.160Z,29.52
2023-02-23T11:44:53.236Z,30.88
2023-02-23T11:47:26.263Z,29.88
2023-02-23T11:49:56.966Z,31.60
2023-02-23T11:52:31.490Z,28.40
2023-02-23T11:55:02.826Z,29.00
2023-02-23T11:57:34.926Z,32.08
2023-02-23T12:00:06.424Z,25.98
2023-02-23T12:02:36.802Z,28.27
2023-02-23T12:05:10.473Z,25.30
2023-02-23T12:07:44.591Z,25.42
2023-02-23T12:10:20.244Z,25.33
2023-02-23T12:12:57.819Z,28.02
2023-02-23T12:18:00.916Z,26.35
2023-02-23T12:20:33.972Z,23.67
2023-02-23T12:23:10.301Z,24.38
2023-02-23T12:25:45.388Z,25.58
2023-02-23T12:28:19.628Z,25.23
2023-02-23T12:30:55.071Z,23.20
2023-02-23T12:33:34.189Z,22.13
2023-02-23T12:36:06.937Z,21.80
2023-02-23T12:38:48.858Z,25.70
2023-02-23T12:41:21.791Z,22.67
2023-02-23T12:43:54.604Z,26.65
2023-02-23T12:46:26.268Z,21.92
2023-02-23T12:49:01.444Z,25.65
2023-02-23T12:51:33.901Z,19.48
2023-02-23T12:54:07.110Z,19.42
2023-02-23T12:56:46.949Z,19.30
2023-02-23T12:59:44.555Z,17.63
2023-02-23T13:02:18.281Z,18.02
2023-02-23T13:04:56.012Z,18.02
2023-02-23T13:07:28.070Z,16.60
2023-02-23T13:10:05.900Z,18.88
2023-02-23T13:12:44.138Z,16.08
2023-02-23T13:15:22.353Z,19.35
2023-02-23T13:17:54.476Z,18.17
2023-02-23T13:20:28.002Z,21.70
2023-02-23T13:23:03.384Z,19.55
2023-02-23T13:25:40.805Z,17.95
2023-02-23T13:28:16.664Z,17.00
2023-02-23T13:30:47.907Z,17.58
2023-02-23T13:33:41.937Z,15.13
2023-02-23T13:36:14.714Z,17.50
2023-02-23T13:38:48.670Z,12.23
2023-02-23T13:41:28.087Z,10.35
2023-02-23T13:44:01.209Z,13.05
2023-02-23T13:46:37.488Z,9.90
2023-02-23T13:49:17.327Z,10.77
2023-02-23T13:51:49.986Z,10.82
2023-02-23T13:54:29.763Z,10.63
2023-02-23T13:57:03.847Z,10.13
2023-02-23T13:59:36.812Z,10.90
2023-02-23T14:02:19.544Z,9.30
2023-02-23T14:04:49.984Z,9.50
2023-02-23T14:07:22.302Z,11.45
2023-02-23T14:09:57.188Z,10.20
2023-02-23T14:12:36.254Z,11.60
2023-02-23T14:15:21.525Z,10.00
2023-02-23T14:18:00.941Z,9.60
2023-02-23T14:20:46.191Z,9.23
2023-02-23T14:23:30.158Z,8.00
2023-02-23T14:26:15.384Z,9.75
2023-02-23T14:28:49.252Z,9.90
2023-02-23T14:31:25.997Z,8.52
2023-02-23T14:34:02.126Z,7.60
2023-02-23T14:36:56.701Z,10.50
2023-02-23T14:39:28.486Z,10.07
2023-02-23T14:41:59.627Z,12.35
2023-02-23T14:44:33.892Z,11.88
2023-02-23T14:47:09.151Z,16.05
2023-02-23T14:49:41.503Z,14.85
2023-02-23T14:52:12.317Z,11.95
2023-02-23T14:54:43.670Z,13.80
2023-02-23T14:57:21.337Z,15.10
2023-02-23T15:00:05.544Z,11.20
2023-02-23T15:02:45.805Z,12.50
2023-02-23T15:05:19.707Z,11.23
2023-02-23T15:07:51.982Z,14.77
2023-02-23T15:10:24.291Z,15.80
2023-02-23T15:12:54.558Z,12.25
2023-02-23T15:15:28.727Z,11.95
2023-02-23T15:18:01.608Z,11.13
2023-02-23T15:23:05.230Z,9.18
2023-02-23T15:25:39.998Z,12.23
2023-02-23T15:28:25.324Z,14.38
2023-02-23T15:30:59.054Z,20.83
2023-02-23T15:33:31.181Z,15.05
2023-02-23T15:36:11.412Z,11.40
2023-02-23T15:38:44.828Z,10.90
2023-02-23T15:41:23.310Z,10.13
2023-02-23T15:43:53.745Z,8.40
2023-02-23T15:46:30.256Z,13.05
2023-02-23T15:49:05.355Z,6.97
2023-02-23T15:51:38.096Z,11.27
2023-02-23T15:54:14.156Z,7.57
2023-02-23T15:56:47.066Z,18.95
2023-02-23T15:59:20.961Z,9.48
2023-02-23T16:01:57.363Z,8.60
2023-02-23T16:04:30.104Z,8.90
2023-02-23T16:07:13.273Z,10.30
2023-02-23T16:09:43.545Z,9.75
2023-02-23T16:12:16.391Z,10.63
2023-02-23T16:14:47.503Z,9.05
2023-02-23T16:17:25.405Z,13.60
2023-02-23T16:19:55.955Z,9.38
2023-02-23T16:22:28.950Z,8.95
2023-02-23T16:25:05.200Z,8.52
2023-02-23T16:27:35.626Z,12.15
2023-02-23T16:30:09.880Z,11.27
2023-02-23T16:32:45.135Z,8.30
2023-02-23T16:35:19.528Z,10.73
2023-02-23T16:37:54.914Z,7.53
2023-02-23T16:40:25.419Z,8.50
2023-02-23T16:42:59.564Z,12.95
2023-02-23T16:45:30.444Z,17.95
2023-02-23T16:48:04.656Z,8.85
2023-02-23T16:50:36.461Z,9.40
2023-02-23T16:53:09.624Z,10.40
2023-02-23T16:55:41.927Z,8.95
2023-02-23T16:58:13.982Z,9.93
2023-02-23T17:00:44.441Z,13.63
2023-02-23T17:03:23.193Z,14.90
2023-02-23T17:05:53.772Z,11.52
2023-02-23T17:08:24.718Z,13.20
2023-02-23T17:10:55.995Z,13.65
2023-02-23T17:13:27.157Z,12.90
2023-02-23T17:18:30.736Z,11.10
2023-02-23T17:21:01.779Z,11.55
2023-02-23T17:23:39.288Z,12.80
2023-02-23T17:26:10.470Z,11.68
2023-02-23T17:28:41.061Z,12.48
2023-02-23T17:31:11.572Z,13.07
2023-02-23T17:33:45.066Z,13.20
2023-02-23T17:36:16.958Z,17.95
2023-02-23T17:38:47.559Z,21.55
2023-02-23T17:41:19.631Z,17.70
2023-02-23T17:43:50.199Z,18.50
2023-02-23T17:46:20.561Z,13.43
2023-02-23T17:48:55.251Z,17.33
2023-02-23T17:51:26.639Z,12.73
2023-02-23T17:53:57.121Z,17.15
2023-02-23T17:56:28.348Z,18.08
2023-02-23T17:58:58.653Z,12.68
2023-02-23T18:01:28.899Z,13.75
2023-02-23T18:04:01.961Z,12.55
2023-02-23T18:06:32.193Z,11.82
2023-02-23T18:09:05.603Z,12.52
2023-02-23T18:11:36.326Z,10.77
2023-02-23T18:14:06.632Z,11.50
2023-02-23T18:16:36.888Z,13.68
2023-02-23T18:19:09.751Z,14.55
2023-02-23T18:21:41.716Z,13.40
2023-02-23T18:24:12.018Z,15.00
2023-02-23T18:26:42.575Z,14.25
2023-02-23T18:29:12.843Z,14.98
2023-02-23T18:31:43.317Z,16.20
2023-02-23T18:34:16.346Z,18.08
2023-02-23T18:36:47.380Z,16.83
2023-02-23T18:39:17.865Z,18.45
2023-02-23T18:41:48.173Z,21.63
2023-02-23T18:44:21.880Z,14.50
2023-02-23T18:46:53.057Z,17.48
2023-02-23T18:49:27.287Z,17.77
2023-02-23T18:51:58.235Z,17.45
2023-02-23T18:54:29.808Z,18.00
2023-02-23T18:57:00.045Z,18.35
2023-02-23T18:59:30.300Z,17.58
2023-02-23T19:02:01.040Z,16.67
2023-02-23T19:04:34.104Z,15.05
2023-02-23T19:07:04.765Z,17.30
2023-02-23T19:09:39.744Z,15.60
2023-02-23T19:12:11.917Z,7.45
2023-02-23T19:14:49.752Z,9.75
2023-02-23T19:17:20.195Z,7.82
2023-02-23T19:19:55.409Z,8.40
2023-02-23T19:22:25.898Z,10.57
2023-02-23T19:24:56.464Z,10.57
2023-02-23T19:27:29.547Z,12.38
2023-02-23T19:30:00.012Z,13.93
2023-02-23T19:32:30.455Z,11.98
2023-02-23T19:35:03.453Z,15.80
2023-02-23T19:37:33.712Z,15.55
2023-02-23T19:40:04.799Z,16.88
2023-02-23T19:42:37.041Z,13.38
2023-02-23T19:45:07.731Z,6.57
2023-02-23T19:47:37.995Z,11.93
2023-02-23T19:50:11.689Z,12.75
2023-02-23T19:52:42.508Z,11.23
2023-02-23T19:55:13.460Z,10.10
2023-02-23T19:57:43.725Z,7.05
2023-02-23T20:00:14.661Z,13.27
2023-02-23T20:02:50.524Z,25.10
2023-02-23T20:05:23.924Z,25.30
2023-02-23T20:07:54.865Z,18.00
2023-02-23T20:10:26.139Z,18.05
2023-02-23T20:15:26.447Z,16.83
2023-02-23T20:17:56.667Z,14.02
2023-02-23T20:20:29.837Z,17.77
2023-02-23T20:23:00.074Z,24.90
2023-02-23T20:25:31.489Z,20.67
2023-02-23T20:28:02.234Z,29.55
2023-02-23T20:30:32.844Z,17.70
2023-02-23T20:33:05.892Z,37.38
2023-02-23T20:35:38.808Z,42.70
2023-02-23T20:38:09.168Z,28.73
2023-02-23T20:40:39.473Z,42.03
2023-02-23T20:43:11.253Z,38.10
2023-02-23T20:45:41.981Z,22.25
2023-02-23T20:48:12.386Z,20.90
2023-02-23T20:50:45.428Z,19.75
2023-02-23T20:53:15.704Z,18.55
2023-02-23T20:55:46.023Z,13.70
2023-02-23T20:58:26.435Z,19.10
2023-02-23T21:00:57.390Z,15.70
2023-02-23T21:03:28.121Z,19.38
2023-02-23T21:06:01.166Z,18.13
2023-02-23T21:08:31.557Z,15.45
2023-02-23T21:11:08.976Z,13.98
2023-02-23T21:13:39.619Z,18.25
2023-02-23T21:16:10.552Z,20.35
2023-02-23T21:18:40.830Z,16.70
2023-02-23T21:21:15.896Z,21.17
2023-02-23T21:23:48.988Z,15.82
2023-02-23T21:26:21.732Z,20.25
2023-02-23T21:28:52.151Z,21.08
2023-02-23T21:31:22.819Z,11.88
2023-02-23T21:33:53.595Z,12.35
2023-02-23T21:36:26.585Z,10.68
2023-02-23T21:38:56.841Z,12.93
2023-02-23T21:41:27.618Z,14.70
2023-02-23T21:43:57.919Z,12.45
2023-02-23T21:46:28.433Z,18.98
2023-02-23T21:48:58.806Z,20.55
2023-02-23T21:51:34.928Z,17.33
2023-02-23T21:54:05.234Z,14.38
2023-02-23T21:56:36.938Z,14.38
2023-02-23T21:59:08.442Z,11.88
2023-02-23T22:01:40.944Z,10.45
2023-02-23T22:04:12.256Z,17.80
2023-02-23T22:09:16.144Z,11.85
2023-02-23T22:11:48.045Z,13.05
2023-02-23T22:14:19.353Z,13.52
2023-02-23T22:19:20.315Z,14.73
2023-02-23T22:21:50.890Z,15.88
2023-02-23T22:24:23.678Z,11.45
2023-02-23T22:26:54.569Z,13.57
2023-02-23T22:29:25.165Z,19.17
2023-02-23T22:31:55.647Z,23.00
2023-02-23T22:34:26.104Z,19.80
2023-02-23T22:36:56.381Z,18.70
2023-02-23T22:39:33.389Z,18.92
2023-02-23T22:42:09.420Z,17.77
2023-02-23T22:44:41.502Z,15.30
2023-02-23T22:47:11.867Z,14.98
2023-02-23T22:49:42.139Z,11.45
2023-02-23T22:52:12.859Z,10.88
2023-02-23T22:54:46.540Z,11.93
2023-02-23T22:57:17.078Z,11.68
2023-02-23T22:59:54.789Z,12.07
2023-02-23T23:02:25.423Z,10.68
2023-02-23T23:04:56.311Z,10.20
2023-02-23T23:07:28.320Z,11.88
2023-02-23T23:10:03.754Z,10.57
2023-02-23T23:12:34.794Z,9.80
2023-02-23T23:15:05.258Z,16.15
2023-02-23T23:17:35.874Z,15.45
2023-02-23T23:20:11.916Z,15.43
2023-02-23T23:22:42.197Z,12.38
2023-02-23T23:25:22.948Z,8.38
2023-02-23T23:27:55.445Z,12.68
2023-02-23T23:30:29.299Z,11.10
2023-02-23T23:33:00.304Z,14.70
2023-02-23T23:35:30.844Z,9.18
2023-02-23T23:38:01.856Z,14.40
2023-02-23T23:40:35.856Z,8.82
2023-02-23T23:43:07.938Z,17.25
2023-02-23T23:45:38.986Z,12.77
2023-02-23T23:48:10.638Z,10.57
2023-02-23T23:50:40.900Z,12.93
2023-02-23T23:53:11.237Z,14.50
2023-02-23T23:55:44.081Z,14.88
2023-02-23T23:58:18.554Z,9.63
